Time;durP1;ratioP1;P1;durP2;ratioP2;P2;SDS_P1;SDS_P2;PMS_P1;PMS_P2;Temp;Humidity;BMP_temperature;BMP_pressure;BME280_temperature;BME280_humidity;BME280_pressure;Samples;Min_cycle;Max_cycle;Signal;HPM_P1;HPM_P2
2021/07/31 00:00:21;;;;;;;5.30;4.28;;;26.00;62.10;;;;;;5072769;28;20067;-79
2021/07/31 00:02:47;;;;;;;10.73;4.68;;;25.90;62.10;;;;;;5072623;28;20036;-74
2021/07/31 00:05:13;;;;;;;8.32;4.63;;;25.90;62.20;;;;;;5072650;28;20028;-76
2021/07/31 00:07:42;;;;;;;8.52;4.70;;;25.90;62.30;;;;;;5072457;28;20602;-75
2021/07/31 00:10:09;;;;;;;7.00;4.32;;;26.00;62.30;;;;;;5073072;28;20441;-75
2021/07/31 00:12:34;;;;;;;7.70;4.68;;;25.90;62.30;;;;;;5074758;28;20029;-75
2021/07/31 00:15:00;;;;;;;7.05;4.65;;;25.90;62.40;;;;;;5076600;28;20136;-75
2021/07/31 00:17:26;;;;;;;7.88;4.45;;;25.80;62.40;;;;;;5076579;28;20016;-78
2021/07/31 00:19:51;;;;;;;8.88;4.80;;;25.80;62.50;;;;;;5076522;28;20428;-75
2021/07/31 00:22:17;;;;;;;5.53;4.18;;;25.80;62.60;;;;;;5076211;28;20037;-76
2021/07/31 00:24:43;;;;;;;8.27;4.15;;;25.90;73.60;;;;;;5077035;28;20381;-73
2021/07/31 00:27:08;;;;;;;5.43;4.00;;;25.80;62.70;;;;;;5076270;28;20098;-76
2021/07/31 00:29:34;;;;;;;6.82;4.28;;;25.80;62.60;;;;;;5076461;28;20024;-78
2021/07/31 00:32:00;;;;;;;5.32;4.13;;;25.80;62.60;;;;;;5076469;28;20385;-76
2021/07/31 00:34:25;;;;;;;9.60;5.05;;;25.80;62.60;;;;;;5076280;28;20093;-75
2021/07/31 00:36:51;;;;;;;9.70;5.22;;;25.80;62.60;;;;;;5076125;28;20083;-75
2021/07/31 00:39:17;;;;;;;6.88;4.82;;;25.70;62.70;;;;;;5076038;28;20032;-73
2021/07/31 00:41:42;;;;;;;8.27;5.00;;;25.70;62.80;;;;;;5075976;28;20063;-76
2021/07/31 00:44:08;;;;;;;7.85;5.35;;;25.60;62.90;;;;;;5076187;28;20078;-79
2021/07/31 00:46:34;;;;;;;12.48;4.68;;;25.60;63.00;;;;;;5075881;28;20453;-77
2021/07/31 00:49:00;;;;;;;9.15;5.03;;;25.60;63.00;;;;;;5075980;28;20495;-74
2021/07/31 00:51:26;;;;;;;6.40;4.88;;;25.60;63.20;;;;;;5075737;28;20488;-73
2021/07/31 00:53:53;;;;;;;9.23;5.30;;;25.60;63.30;;;;;;5075905;28;20376;-74
2021/07/31 00:56:18;;;;;;;9.77;4.90;;;25.50;63.40;;;;;;5075820;28;20024;-73
2021/07/31 00:58:45;;;;;;;11.23;4.70;;;25.50;63.40;;;;;;5073774;28;20473;-76
2021/07/31 01:01:11;;;;;;;6.68;4.72;;;25.50;63.50;;;;;;5072788;28;20401;-75
2021/07/31 01:03:37;;;;;;;8.63;4.78;;;25.50;63.50;;;;;;5072864;28;20040;-74
2021/07/31 01:06:02;;;;;;;7.22;4.82;;;25.50;63.50;;;;;;5075193;28;20078;-72
2021/07/31 01:08:28;;;;;;;14.02;5.30;;;25.50;63.70;;;;;;5075382;28;20125;-74
2021/07/31 01:10:54;;;;;;;6.93;5.10;;;25.50;63.70;;;;;;5075149;28;20021;-74
2021/07/31 01:13:20;;;;;;;6.88;4.32;;;25.50;63.70;;;;;;5075021;28;20477;-72
2021/07/31 01:16:04;;;;;;;9.52;4.60;;;25.50;63.60;;;;;;5075148;28;20017;-72
2021/07/31 01:18:31;;;;;;;10.05;5.32;;;25.50;63.50;;;;;;5075141;28;20025;-76
2021/07/31 01:20:57;;;;;;;8.05;5.30;;;25.60;63.60;;;;;;5074598;28;20021;-74
2021/07/31 01:23:22;;;;;;;8.85;5.60;;;25.60;63.60;;;;;;5074321;28;20040;-74
2021/07/31 01:25:48;;;;;;;13.13;5.78;;;25.50;63.60;;;;;;5075068;28;20366;-76
2021/07/31 01:28:14;;;;;;;6.47;4.63;;;25.50;63.50;;;;;;5074657;28;20048;-74
2021/07/31 01:30:40;;;;;;;9.73;5.28;;;25.50;63.70;;;;;;5074565;28;20175;-75
2021/07/31 01:33:06;;;;;;;7.60;5.53;;;25.50;63.70;;;;;;5074987;28;20021;-77
2021/07/31 01:35:31;;;;;;;9.50;5.60;;;25.50;63.60;;;;;;5074848;28;20032;-77
2021/07/31 01:37:57;;;;;;;7.78;4.90;;;25.50;63.70;;;;;;5075055;28;20017;-75
2021/07/31 01:40:23;;;;;;;10.88;4.90;;;25.50;63.60;;;;;;5074569;28;20525;-77
2021/07/31 01:42:49;;;;;;;9.07;5.30;;;25.50;63.70;;;;;;5074474;28;20103;-75
2021/07/31 01:45:14;;;;;;;7.25;5.03;;;25.50;63.70;;;;;;5074572;28;20108;-78
2021/07/31 01:47:44;;;;;;;9.20;5.55;;;25.40;63.80;;;;;;5074751;28;20021;-77
2021/07/31 01:50:10;;;;;;;6.85;5.00;;;25.40;64.00;;;;;;5074077;28;20111;-76
2021/07/31 01:52:35;;;;;;;9.65;5.40;;;25.40;64.10;;;;;;5074332;28;20019;-75
2021/07/31 01:55:01;;;;;;;10.88;5.53;;;25.40;64.10;;;;;;5074477;28;20024;-72
2021/07/31 01:57:27;;;;;;;8.25;5.50;;;25.40;64.20;;;;;;5074369;28;20024;-73
2021/07/31 01:59:52;;;;;;;9.88;5.95;;;25.30;64.30;;;;;;5073987;28;20502;-77
2021/07/31 02:02:18;;;;;;;7.88;4.82;;;25.30;64.20;;;;;;5074328;28;20492;-74
2021/07/31 02:04:44;;;;;;;11.05;5.68;;;25.30;64.30;;;;;;5074656;28;20021;-78
2021/07/31 02:07:10;;;;;;;6.53;5.20;;;25.30;64.40;;;;;;5074371;28;20420;-75
2021/07/31 02:09:35;;;;;;;11.35;5.97;;;25.30;64.30;;;;;;5074276;28;20034;-74
2021/07/31 02:12:01;;;;;;;9.10;5.47;;;25.30;65.00;;;;;;5074321;28;20020;-75
2021/07/31 02:14:27;;;;;;;12.23;5.85;;;25.30;64.50;;;;;;5074441;28;20024;-77
2021/07/31 02:16:52;;;;;;;10.40;6.00;;;25.30;64.60;;;;;;5074172;28;20092;-77
2021/07/31 02:19:18;;;;;;;10.57;5.78;;;25.30;64.60;;;;;;5074303;28;20071;-74
2021/07/31 02:21:44;;;;;;;8.10;6.00;;;25.30;64.60;;;;;;5073949;28;20017;-74
2021/07/31 02:24:10;;;;;;;12.48;5.55;;;25.20;64.50;;;;;;5073878;28;20074;-73
2021/07/31 02:26:35;;;;;;;8.18;6.07;;;25.20;64.60;;;;;;5073682;28;20401;-77
2021/07/31 02:29:01;;;;;;;9.43;5.78;;;25.20;64.60;;;;;;5074020;28;20029;-75
2021/07/31 02:31:27;;;;;;;13.70;5.70;;;25.30;64.60;;;;;;5073645;28;20023;-79
2021/07/31 02:33:52;;;;;;;9.93;5.88;;;25.20;64.70;;;;;;5073887;28;20397;-74
2021/07/31 02:36:18;;;;;;;9.02;5.47;;;25.20;64.70;;;;;;5073951;28;20017;-77
2021/07/31 02:38:44;;;;;;;9.40;6.00;;;25.20;64.80;;;;;;5073637;28;20020;-77
2021/07/31 02:41:10;;;;;;;10.48;5.40;;;25.20;64.80;;;;;;5073728;28;20436;-76
2021/07/31 02:43:35;;;;;;;10.02;5.63;;;25.20;64.60;;;;;;5073664;28;20484;-78
2021/07/31 02:46:09;;;;;;;13.80;5.57;;;25.20;64.60;;;;;;5071888;28;20104;-76
2021/07/31 02:48:37;;;;;;;13.52;5.88;;;25.20;64.60;;;;;;5073745;28;20048;-79
2021/07/31 02:51:04;;;;;;;11.65;5.60;;;25.20;64.70;;;;;;5073318;28;20017;-76
2021/07/31 02:53:30;;;;;;;11.40;5.47;;;25.10;64.50;;;;;;5073537;28;20021;-73
2021/07/31 02:55:55;;;;;;;8.70;5.47;;;25.10;64.50;;;;;;5073305;28;20067;-77
2021/07/31 02:58:21;;;;;;;11.30;5.57;;;25.10;64.60;;;;;;5073751;28;20476;-79
2021/07/31 03:00:47;;;;;;;7.78;5.78;;;25.10;64.70;;;;;;5073522;28;20034;-77
2021/07/31 03:03:12;;;;;;;13.68;5.50;;;25.10;64.60;;;;;;5073172;28;20036;-74
2021/07/31 03:05:38;;;;;;;9.43;5.40;;;25.10;64.60;;;;;;5073116;28;20461;-75
2021/07/31 03:08:04;;;;;;;8.43;5.18;;;25.10;64.60;;;;;;5073234;28;20485;-77
2021/07/31 03:10:30;;;;;;;10.57;5.95;;;25.10;64.50;;;;;;5073326;28;20032;-78
2021/07/31 03:12:56;;;;;;;7.25;5.30;;;25.00;64.60;;;;;;5072949;28;20031;-76
2021/07/31 03:15:21;;;;;;;9.88;5.10;;;25.00;64.70;;;;;;5072876;28;20028;-76
2021/07/31 03:17:47;;;;;;;11.15;5.20;;;25.10;64.80;;;;;;5073212;28;20032;-78
2021/07/31 03:20:13;;;;;;;9.18;5.15;;;25.00;64.70;;;;;;5073246;28;20037;-78
2021/07/31 03:22:39;;;;;;;10.35;5.95;;;25.10;64.80;;;;;;5072797;28;20067;-78
2021/07/31 03:25:05;;;;;;;7.32;5.70;;;25.10;64.80;;;;;;5072898;28;20425;-74
2021/07/31 03:27:31;;;;;;;8.18;6.25;;;25.00;65.40;;;;;;5072728;28;20051;-78
2021/07/31 03:29:56;;;;;;;9.63;6.45;;;25.00;64.90;;;;;;5073115;28;20032;-78
2021/07/31 03:32:22;;;;;;;8.77;5.75;;;25.00;65.00;;;;;;5073236;28;20055;-77
2021/07/31 03:34:48;;;;;;;9.57;5.57;;;25.00;65.00;;;;;;5073194;28;20012;-78
2021/07/31 03:37:13;;;;;;;8.25;5.35;;;25.00;65.10;;;;;;5072750;28;20052;-75
2021/07/31 03:39:39;;;;;;;11.90;5.63;;;25.00;65.00;;;;;;5072801;28;20040;-79
2021/07/31 03:42:05;;;;;;;9.65;5.22;;;24.90;65.00;;;;;;5072968;28;20115;-76
2021/07/31 03:44:30;;;;;;;9.02;5.43;;;24.90;65.30;;;;;;5072804;28;20028;-78
2021/07/31 03:46:56;;;;;;;14.63;7.32;;;24.90;65.30;;;;;;5072152;28;20033;-79
2021/07/31 03:49:22;;;;;;;9.38;7.32;;;24.90;65.30;;;;;;5072829;28;20020;-77
2021/07/31 03:51:48;;;;;;;18.48;9.68;;;24.90;65.50;;;;;;5073038;28;20099;-76
2021/07/31 03:54:14;;;;;;;14.00;9.30;;;24.90;65.90;;;;;;5071652;28;20024;-79
2021/07/31 03:56:39;;;;;;;10.13;8.07;;;24.90;66.10;;;;;;5071748;28;20476;-83
2021/07/31 03:59:05;;;;;;;13.80;8.82;;;24.90;66.40;;;;;;5072913;28;20091;-83
2021/07/31 04:01:31;;;;;;;13.63;8.80;;;24.80;66.50;;;;;;5072582;28;20028;-74
2021/07/31 04:03:56;;;;;;;14.15;9.15;;;24.80;66.80;;;;;;5072397;28;20039;-83
2021/07/31 04:06:22;;;;;;;15.02;9.13;;;24.80;66.90;;;;;;5072318;28;20027;-81
2021/07/31 04:08:48;;;;;;;12.98;8.35;;;24.80;66.90;;;;;;5070630;28;20020;-82
2021/07/31 04:11:14;;;;;;;12.52;9.13;;;24.80;67.10;;;;;;5070612;28;20041;-83
2021/07/31 04:13:40;;;;;;;14.63;8.90;;;24.70;66.90;;;;;;5071160;28;20111;-82
2021/07/31 04:16:08;;;;;;;10.30;8.38;;;24.70;67.20;;;;;;5071931;28;20543;-81
2021/07/31 04:18:34;;;;;;;15.57;9.18;;;24.70;67.20;;;;;;5071645;28;20469;-80
2021/07/31 04:21:04;;;;;;;16.67;9.20;;;24.60;67.30;;;;;;5071581;28;20111;-81
2021/07/31 04:23:30;;;;;;;13.10;7.85;;;24.60;67.40;;;;;;5071869;28;20067;-80
2021/07/31 04:25:56;;;;;;;15.15;8.88;;;24.60;67.60;;;;;;5072562;28;20021;-79
2021/07/31 04:28:21;;;;;;;10.35;7.70;;;24.60;67.70;;;;;;5072663;28;20033;-80
2021/07/31 04:30:47;;;;;;;11.75;8.20;;;24.50;67.80;;;;;;5072488;28;20067;-81
2021/07/31 04:33:14;;;;;;;11.13;7.57;;;24.60;67.70;;;;;;5072740;28;20423;-81
2021/07/31 04:35:39;;;;;;;10.02;7.32;;;24.60;67.70;;;;;;5072507;28;20036;-81
2021/07/31 04:38:05;;;;;;;15.38;7.28;;;24.60;67.80;;;;;;5072708;28;20063;-80
2021/07/31 04:40:31;;;;;;;8.00;7.20;;;24.60;67.90;;;;;;5072589;28;20381;-80
2021/07/31 04:42:56;;;;;;;12.55;7.68;;;24.60;68.00;;;;;;5072540;28;20025;-80
2021/07/31 04:45:22;;;;;;;15.40;7.72;;;24.60;67.90;;;;;;5072859;28;20021;-80
2021/07/31 04:47:48;;;;;;;17.10;8.10;;;24.60;67.70;;;;;;5072551;28;20029;-79
2021/07/31 04:50:14;;;;;;;14.43;8.75;;;24.70;67.60;;;;;;5072431;28;20025;-80
2021/07/31 04:52:40;;;;;;;13.55;8.48;;;24.70;67.80;;;;;;5072358;28;20505;-79
2021/07/31 04:55:06;;;;;;;11.20;7.90;;;24.70;67.90;;;;;;5072125;28;20132;-80
2021/07/31 04:57:32;;;;;;;12.73;7.97;;;24.70;68.10;;;;;;5072476;28;20103;-81
2021/07/31 04:59:57;;;;;;;13.32;7.57;;;24.70;68.20;;;;;;5076091;28;20052;-75
2021/07/31 05:02:23;;;;;;;14.55;7.13;;;24.70;68.30;;;;;;5075513;28;20059;-79
2021/07/31 05:04:49;;;;;;;8.65;6.32;;;24.70;68.20;;;;;;5075978;28;20029;-80
2021/07/31 05:07:14;;;;;;;10.82;5.70;;;24.70;67.90;;;;;;5075791;28;20091;-81
2021/07/31 05:09:40;;;;;;;10.45;5.88;;;24.80;67.60;;;;;;5075575;28;20060;-79
2021/07/31 05:12:06;;;;;;;8.48;5.43;;;24.80;67.40;;;;;;5076126;28;20381;-76
2021/07/31 05:14:32;;;;;;;12.02;5.78;;;24.80;67.00;;;;;;5075721;28;20016;-81
2021/07/31 05:16:58;;;;;;;10.23;5.28;;;24.90;66.70;;;;;;5075540;28;20074;-72
2021/07/31 05:19:23;;;;;;;8.82;5.30;;;24.90;66.60;;;;;;5075439;28;20055;-73
2021/07/31 05:21:53;;;;;;;8.32;5.50;;;25.00;66.50;;;;;;5075141;28;20059;-73
2021/07/31 05:24:18;;;;;;;9.88;5.25;;;25.00;66.20;;;;;;5075546;28;20099;-78
2021/07/31 05:26:44;;;;;;;7.35;5.40;;;25.10;65.90;;;;;;5075076;28;20516;-79
2021/07/31 05:29:10;;;;;;;16.00;5.70;;;25.10;65.80;;;;;;5075693;28;20385;-72
2021/07/31 05:31:35;;;;;;;10.32;5.57;;;25.10;65.80;;;;;;5075693;28;20017;-76
2021/07/31 05:34:02;;;;;;;9.50;5.25;;;25.10;65.90;;;;;;5075064;28;20024;-70
2021/07/31 05:36:30;;;;;;;13.80;5.45;;;25.10;65.80;;;;;;5075322;28;20366;-69
2021/07/31 05:38:56;;;;;;;5.70;4.90;;;25.20;65.70;;;;;;5075202;28;20370;-69
2021/07/31 05:41:21;;;;;;;8.35;5.18;;;25.10;65.50;;;;;;5075253;28;20107;-68
2021/07/31 05:43:47;;;;;;;11.25;5.15;;;25.10;65.50;;;;;;5075072;28;20111;-77
2021/07/31 05:46:20;;;;;;;8.27;5.15;;;25.20;65.50;;;;;;5075051;28;20074;-79
2021/07/31 05:48:46;;;;;;;6.75;5.43;;;25.20;65.50;;;;;;5074944;28;20025;-77
2021/07/31 05:51:13;;;;;;;10.25;5.78;;;25.20;65.50;;;;;;5074757;28;20020;-72
2021/07/31 05:53:39;;;;;;;8.48;5.35;;;25.20;65.40;;;;;;5074781;28;20048;-69
2021/07/31 05:56:09;;;;;;;8.98;5.03;;;25.20;65.40;;;;;;5072982;28;20090;-69
2021/07/31 05:58:35;;;;;;;12.73;5.28;;;25.30;65.60;;;;;;5074592;28;20384;-70
2021/07/31 06:01:04;;;;;;;7.90;5.20;;;25.30;65.70;;;;;;5074363;28;20485;-69
2021/07/31 06:03:29;;;;;;;11.52;5.30;;;25.30;65.70;;;;;;5074396;28;20044;-73
2021/07/31 06:05:57;;;;;;;10.70;5.20;;;25.30;65.90;;;;;;5074283;28;20031;-70
2021/07/31 06:08:23;;;;;;;10.80;5.50;;;25.40;65.60;;;;;;5074234;28;20107;-69
2021/07/31 06:10:49;;;;;;;11.82;5.82;;;25.50;65.50;;;;;;5074354;28;20501;-67
2021/07/31 06:13:15;;;;;;;16.65;7.50;;;25.50;65.50;;;;;;5074272;28;20105;-67
2021/07/31 06:15:43;;;;;;;10.40;5.82;;;25.60;65.60;;;;;;5074350;28;20036;-68
2021/07/31 06:18:10;;;;;;;31.70;12.45;;;25.60;66.20;;;;;;5074367;28;20111;-67
2021/07/31 06:20:36;;;;;;;13.73;7.22;;;25.70;65.80;;;;;;5074397;28;20025;-67
2021/07/31 06:23:02;;;;;;;20.08;6.28;;;25.70;66.30;;;;;;5074330;28;20040;-68
2021/07/31 06:25:28;;;;;;;17.23;7.68;;;25.70;66.20;;;;;;5073978;28;20108;-71
2021/07/31 06:27:54;;;;;;;10.63;5.85;;;25.70;66.10;;;;;;5073883;28;20123;-72
2021/07/31 06:30:20;;;;;;;12.75;5.88;;;25.70;66.20;;;;;;5073932;28;20020;-73
2021/07/31 06:32:49;;;;;;;17.00;7.00;;;25.70;65.90;;;;;;5074271;28;20085;-72
2021/07/31 06:35:16;;;;;;;16.30;6.30;;;25.80;65.90;;;;;;5074056;28;20108;-74
2021/07/31 06:37:42;;;;;;;16.73;6.80;;;25.80;66.00;;;;;;5073850;28;20035;-74
2021/07/31 06:40:08;;;;;;;12.77;6.63;;;25.90;65.80;;;;;;5074033;28;20020;-73
2021/07/31 06:42:34;;;;;;;12.68;7.80;;;26.00;65.80;;;;;;5072974;28;20044;-72
2021/07/31 06:45:00;;;;;;;10.52;7.20;;;26.00;65.80;;;;;;5073470;28;20024;-72
2021/07/31 06:47:26;;;;;;;12.85;6.45;;;26.00;65.80;;;;;;5072777;28;20524;-75
2021/07/31 06:49:51;;;;;;;11.43;7.07;;;26.00;65.50;;;;;;5071787;28;20068;-72
2021/07/31 06:52:17;;;;;;;17.08;6.60;;;26.10;65.20;;;;;;5072496;28;20142;-72
2021/07/31 06:54:43;;;;;;;15.20;8.18;;;26.10;64.80;;;;;;5072264;28;20027;-71
2021/07/31 06:57:12;;;;;;;22.38;10.05;;;26.10;64.80;;;;;;5072484;28;20479;-71
2021/07/31 06:59:38;;;;;;;15.18;9.25;;;26.10;64.40;;;;;;5073149;28;20048;-71
2021/07/31 07:02:04;;;;;;;11.52;7.13;;;26.10;64.20;;;;;;5072633;28;20033;-71
2021/07/31 07:04:30;;;;;;;11.38;6.78;;;26.20;64.10;;;;;;5072892;28;20028;-71
2021/07/31 07:06:56;;;;;;;12.68;7.00;;;26.20;63.90;;;;;;5072935;28;20066;-71
2021/07/31 07:09:22;;;;;;;15.95;6.57;;;26.20;63.70;;;;;;5072300;28;20469;-72
2021/07/31 07:11:47;;;;;;;12.05;6.85;;;26.30;63.60;;;;;;5073106;28;20033;-71
2021/07/31 07:14:13;;;;;;;120.93;89.32;;;26.30;63.30;;;;;;5073182;28;20020;-70
2021/07/31 07:16:39;;;;;;;28.35;17.73;;;26.30;62.90;;;;;;5073241;28;20444;-71
2021/07/31 07:19:04;;;;;;;24.55;15.38;;;26.40;62.80;;;;;;5073226;28;20033;-73
2021/07/31 07:21:30;;;;;;;16.88;9.35;;;26.40;62.60;;;;;;5072445;28;20350;-71
2021/07/31 07:23:56;;;;;;;15.52;6.68;;;26.50;62.60;;;;;;5072489;28;20102;-72
2021/07/31 07:26:22;;;;;;;19.88;7.70;;;26.50;62.80;;;;;;5070831;28;20047;-73
2021/07/31 07:28:47;;;;;;;22.63;13.10;;;26.50;63.00;;;;;;5073043;28;20028;-71
2021/07/31 07:31:14;;;;;;;18.45;12.65;;;26.50;62.80;;;;;;5072160;28;20031;-70
2021/07/31 07:33:41;;;;;;;50.60;35.10;;;26.50;62.50;;;;;;5072425;28;20016;-71
2021/07/31 07:36:17;;;;;;;63.58;42.92;;;26.50;62.20;;;;;;5073026;28;20031;-70
2021/07/31 07:38:45;;;;;;;31.00;19.70;;;26.60;62.50;;;;;;5071656;28;20032;-71
2021/07/31 07:41:13;;;;;;;21.23;13.02;;;26.50;62.40;;;;;;5072972;28;20032;-72
2021/07/31 07:43:40;;;;;;;16.90;7.30;;;26.60;62.30;;;;;;5072838;28;20075;-71
2021/07/31 07:46:06;;;;;;;10.13;6.10;;;26.60;62.30;;;;;;5072949;28;20075;-71
2021/07/31 07:48:32;;;;;;;10.63;5.63;;;26.60;62.30;;;;;;5072409;28;20025;-74
2021/07/31 07:50:58;;;;;;;8.15;5.13;;;26.70;62.40;;;;;;5072398;28;20036;-71
2021/07/31 07:53:24;;;;;;;10.43;5.50;;;26.70;63.10;;;;;;5072350;28;20567;-71
2021/07/31 07:55:50;;;;;;;161.85;20.42;;;26.70;62.80;;;;;;5071891;28;20099;-72
2021/07/31 07:58:16;;;;;;;342.50;37.47;;;26.70;62.50;;;;;;5071111;28;20094;-73
2021/07/31 08:00:44;;;;;;;362.55;47.45;;;26.80;62.60;;;;;;5071424;28;20484;-71
2021/07/31 08:03:10;;;;;;;15.05;6.32;;;26.80;62.80;;;;;;5072105;28;20047;-71
2021/07/31 08:05:38;;;;;;;27.40;6.15;;;26.90;63.00;;;;;;5072435;28;20433;-71
2021/07/31 08:08:04;;;;;;;18.65;5.78;;;27.00;62.60;;;;;;5072539;28;20391;-71
2021/07/31 08:10:30;;;;;;;22.30;6.15;;;27.10;62.10;;;;;;5072436;28;20424;-71
2021/07/31 08:12:56;;;;;;;44.45;6.20;;;27.10;61.50;;;;;;5072140;28;20028;-71
2021/07/31 08:15:22;;;;;;;25.60;6.00;;;27.10;61.10;;;;;;5071801;28;20488;-72
2021/07/31 08:17:47;;;;;;;10.40;5.18;;;27.10;60.90;;;;;;5071485;28;20029;-72
2021/07/31 08:20:14;;;;;;;20.30;5.88;;;27.20;60.80;;;;;;5070794;28;20021;-71
2021/07/31 08:22:40;;;;;;;31.77;6.70;;;27.20;61.30;;;;;;5072034;28;20081;-70
2021/07/31 08:25:06;;;;;;;26.08;6.35;;;27.20;61.60;;;;;;5072171;28;20029;-72
2021/07/31 08:27:32;;;;;;;11.75;5.68;;;27.20;61.40;;;;;;5072100;28;20519;-71
2021/07/31 08:29:57;;;;;;;24.33;6.55;;;27.20;61.00;;;;;;5071853;28;20048;-71
2021/07/31 08:32:23;;;;;;;16.35;5.60;;;27.20;60.80;;;;;;5073892;28;20048;-71
2021/07/31 08:34:50;;;;;;;21.48;5.30;;;27.30;60.70;;;;;;5075178;28;20047;-71
2021/07/31 08:37:16;;;;;;;18.42;5.55;;;27.30;60.60;;;;;;5076067;28;20025;-72
2021/07/31 09:12:51;;;;;;;11.32;5.95;;;;;;;;;;5131129;27;20104;-72
2021/07/31 09:15:30;;;;;;;26.88;6.90;;;27.50;58.60;;;;;;5130953;28;20110;-73
2021/07/31 09:18:21;;;;;;;15.98;4.80;;;27.60;60.70;;;;;;5130875;27;20023;-73
2021/07/31 09:21:14;;;;;;;30.02;6.32;;;27.60;60.20;;;;;;5131200;28;20026;-73
2021/07/31 09:23:51;;;;;;;30.75;6.85;;;27.80;59.60;;;;;;5129114;28;20104;-73
2021/07/31 09:26:23;;;;;;;20.95;6.65;;;27.80;58.20;;;;;;5130846;27;20103;-73
2021/07/31 09:28:58;;;;;;;;;;;27.90;57.60;;;;;;5131196;27;20034;-73
2021/07/31 09:31:24;;;;;;;120.10;12.20;;;28.00;57.60;;;;;;5131092;28;20004;-73
2021/07/31 09:33:50;;;;;;;18.95;5.63;;;28.00;58.20;;;;;;5131104;27;20049;-74
2021/07/31 09:36:17;;;;;;;8.60;4.95;;;;;;;;;;5130917;27;20027;-73
2021/07/31 09:38:48;;;;;;;16.75;5.63;;;;;;;;;;5130861;28;20103;-73
2021/07/31 09:41:28;;;;;;;11.80;4.90;;;;;;;;;;5130854;28;20015;-73
2021/07/31 09:44:14;;;;;;;48.95;7.18;;;;;;;;;;5130760;27;20107;-73
2021/07/31 09:46:42;;;;;;;20.42;5.32;;;;;;;;;;5130674;28;20026;-73
2021/07/31 09:49:09;;;;;;;22.50;5.10;;;;;;;;;;5130631;28;20031;-73
2021/07/31 09:51:39;;;;;;;30.73;6.28;;;;;;;;;;5130705;28;20062;-73
2021/07/31 09:54:06;;;;;;;22.27;5.55;;;;;;;;;;5129901;28;20020;-73
2021/07/31 09:56:37;;;;;;;7.68;5.30;;;;;;;;;;5129363;28;20106;-73
2021/07/31 09:59:05;;;;;;;19.50;5.13;;;;;;;;;;5129904;28;20106;-73
2021/07/31 10:01:34;;;;;;;34.55;5.90;;;;;;;;;;5130349;28;20028;-74
2021/07/31 10:04:02;;;;;;;99.30;9.32;;;;;;;;;;5130275;28;20471;-73
2021/07/31 10:06:28;;;;;;;9.50;4.53;;;;;;;;;;5128776;28;20035;-73
2021/07/31 10:08:54;;;;;;;42.97;6.35;;;;;;;;;;5127476;28;20028;-72
2021/07/31 10:11:20;;;;;;;13.20;5.25;;;28.40;55.50;;;;;;5126808;28;20055;-73
2021/07/31 10:13:47;;;;;;;9.52;4.55;;;28.90;54.30;;;;;;5128873;27;20494;-73
2021/07/31 10:16:12;;;;;;;11.90;5.32;;;28.90;55.10;;;;;;5128877;27;20380;-75
2021/07/31 10:18:38;;;;;;;17.95;5.28;;;28.90;55.50;;;;;;5128723;27;20102;-75
2021/07/31 10:21:06;;;;;;;10.75;4.55;;;29.00;55.60;;;;;;5129741;27;20060;-74
2021/07/31 10:23:56;;;;;;;18.42;5.22;;;29.00;55.30;;;;;;5119195;27;20012;-75
2021/07/31 10:26:22;;;;;;;13.40;3.95;;;29.00;54.90;;;;;;5116277;28;20476;-74
2021/07/31 10:28:48;;;;;;;8.88;4.35;;;29.10;54.90;;;;;;5115955;27;20510;-73
2021/07/31 10:31:31;;;;;;;20.27;4.88;;;29.10;54.70;;;;;;5115978;28;20067;-73
2021/07/31 10:33:57;;;;;;;30.73;4.40;;;29.20;55.40;;;;;;5115819;28;20027;-74
2021/07/31 10:36:39;;;;;;;67.70;6.38;;;29.40;54.90;;;;;;5115719;27;20032;-73
2021/07/31 10:39:26;;;;;;;13.40;4.15;;;29.50;55.00;;;;;;5115765;28;20046;-73
2021/07/31 10:42:03;;;;;;;11.07;4.90;;;29.60;54.90;;;;;;5114659;28;20031;-73
2021/07/31 10:44:29;;;;;;;20.20;4.97;;;29.70;54.00;;;;;;5115321;28;20047;-73
2021/07/31 10:47:20;;;;;;;10.40;4.05;;;29.70;53.80;;;;;;5115879;28;20069;-73
2021/07/31 10:49:46;;;;;;;60.40;5.50;;;29.90;54.10;;;;;;5115941;27;20028;-74
2021/07/31 10:52:52;;;;;;;12.57;4.10;;;30.00;54.00;;;;;;5115453;27;20036;-74
2021/07/31 10:55:22;;;;;;;12.40;3.80;;;30.00;53.40;;;;;;5124620;27;20031;-74
2021/07/31 10:57:54;;;;;;;58.15;6.15;;;30.20;53.20;;;;;;5136097;27;20023;-75
2021/07/31 11:00:30;;;;;;;11.13;3.55;;;30.30;53.00;;;;;;5135775;27;20544;-74
2021/07/31 11:03:03;;;;;;;17.15;4.05;;;30.30;52.20;;;;;;5135931;27;20030;-74
2021/07/31 11:05:51;;;;;;;33.38;4.00;;;30.40;52.20;;;;;;5135815;27;20046;-72
2021/07/31 11:08:25;;;;;;;18.73;4.32;;;30.40;52.30;;;;;;5135425;27;20037;-72
2021/07/31 11:10:54;;;;;;;8.63;3.40;;;30.50;52.00;;;;;;5135531;27;20131;-73
2021/07/31 11:13:20;;;;;;;29.70;5.50;;;30.60;51.90;;;;;;5135559;27;20047;-73
2021/07/31 11:16:04;;;;;;;6.47;3.97;;;30.70;51.70;;;;;;5135453;27;20103;-72
2021/07/31 11:18:35;;;;;;;7.57;4.43;;;30.70;51.20;;;;;;5135861;27;20023;-72
2021/07/31 11:21:20;;;;;;;;;;;30.70;51.40;;;;;;5136189;27;20035;-72
2021/07/31 11:23:57;;;;;;;17.58;4.53;;;30.80;51.10;;;;;;5135491;27;19973;-72
2021/07/31 11:26:36;;;;;;;186.82;12.77;;;30.80;50.90;;;;;;5135364;27;20114;-72
2021/07/31 11:29:09;;;;;;;37.03;5.20;;;30.80;50.70;;;;;;5135261;27;20075;-72
2021/07/31 11:31:38;;;;;;;42.42;5.00;;;30.80;51.20;;;;;;5135355;27;20180;-73
2021/07/31 11:34:08;;;;;;;16.45;4.75;;;30.90;51.00;;;;;;5134603;27;20027;-72
2021/07/31 11:36:37;;;;;;;21.50;4.20;;;30.90;50.40;;;;;;5135028;27;20125;-72
2021/07/31 11:39:07;;;;;;;6.60;4.50;;;30.90;50.50;;;;;;5135025;27;20027;-72
2021/07/31 11:41:41;;;;;;;11.95;5.38;;;31.00;50.70;;;;;;5134360;27;20031;-73
2021/07/31 11:44:08;;;;;;;6.15;4.55;;;31.00;49.30;;;;;;5135040;27;20053;-72
2021/07/31 11:46:45;;;;;;;8.50;4.57;;;30.90;49.50;;;;;;5135350;27;20019;-73
2021/07/31 11:49:23;;;;;;;9.00;4.28;;;30.90;49.30;;;;;;5135018;27;20058;-72
2021/07/31 11:51:50;;;;;;;7.40;4.43;;;30.90;49.60;;;;;;5134512;27;20037;-72
2021/07/31 11:54:15;;;;;;;10.45;4.18;;;30.80;49.50;;;;;;5133051;27;20066;-72
2021/07/31 11:56:43;;;;;;;6.00;4.38;;;30.80;49.70;;;;;;5131835;27;20050;-72
2021/07/31 11:59:09;;;;;;;5.97;3.97;;;30.80;49.80;;;;;;5132348;27;20459;-72
2021/07/31 12:01:36;;;;;;;9.52;4.35;;;30.80;50.00;;;;;;5134830;27;20490;-72
2021/07/31 12:04:03;;;;;;;8.75;3.83;;;30.90;50.00;;;;;;5134730;27;20030;-72
2021/07/31 12:06:33;;;;;;;5.85;4.10;;;31.00;49.50;;;;;;5134292;27;20030;-71
2021/07/31 12:09:04;;;;;;;6.53;4.25;;;31.10;48.90;;;;;;5134123;27;20024;-70
2021/07/31 12:11:35;;;;;;;6.68;4.00;;;31.20;49.00;;;;;;5133713;27;20586;-72
2021/07/31 12:14:22;;;;;;;6.75;4.20;;;31.20;49.30;;;;;;5134593;27;20382;-71
2021/07/31 12:16:47;;;;;;;10.48;3.97;;;31.30;49.10;;;;;;5123431;27;20083;-72
2021/07/31 12:19:13;;;;;;;4.97;3.80;;;31.40;48.80;;;;;;5117626;27;20020;-72
2021/07/31 12:21:39;;;;;;;7.45;4.00;;;31.50;48.80;;;;;;5113353;28;20035;-72
2021/07/31 12:24:15;;;;;;;10.07;4.78;;;31.50;48.60;;;;;;5113668;28;20016;-72
2021/07/31 12:26:52;;;;;;;7.00;4.13;;;31.50;48.40;;;;;;5113194;28;20019;-71
2021/07/31 12:29:34;;;;;;;8.40;5.40;;;31.60;47.80;;;;;;5113884;28;20035;-72
2021/07/31 12:32:18;;;;;;;8.68;4.50;;;31.60;47.90;;;;;;5113728;28;20071;-72
2021/07/31 12:34:44;;;;;;;11.27;4.50;;;31.60;48.40;;;;;;5113748;28;20429;-72
2021/07/31 12:37:10;;;;;;;8.13;4.90;;;31.70;48.60;;;;;;5113716;28;20028;-69
2021/07/31 12:39:36;;;;;;;9.88;4.40;;;31.70;48.00;;;;;;5113769;28;20019;-69
2021/07/31 12:42:03;;;;;;;6.80;3.88;;;31.80;48.60;;;;;;5113183;28;20032;-72
2021/07/31 12:44:30;;;;;;;6.03;3.70;;;31.80;48.10;;;;;;5112306;28;20490;-72
2021/07/31 12:46:57;;;;;;;6.68;3.95;;;31.90;49.10;;;;;;5113399;28;20035;-72
2021/07/31 12:49:22;;;;;;;7.40;4.13;;;31.80;47.50;;;;;;5113191;27;20076;-73
2021/07/31 12:51:48;;;;;;;8.60;4.40;;;31.80;47.80;;;;;;5113592;28;20479;-72
2021/07/31 12:54:14;;;;;;;12.25;4.25;;;31.80;48.00;;;;;;5112161;28;20016;-72
2021/07/31 12:56:39;;;;;;;9.60;4.20;;;31.90;47.80;;;;;;5112919;28;20031;-69
2021/07/31 12:59:05;;;;;;;5.43;4.00;;;31.90;47.90;;;;;;5113301;28;20016;-71
2021/07/31 13:01:31;;;;;;;11.13;4.10;;;32.00;48.00;;;;;;5113072;28;20031;-72
2021/07/31 13:03:56;;;;;;;8.50;4.03;;;32.00;47.90;;;;;;5112788;28;20016;-72
2021/07/31 13:06:22;;;;;;;6.00;4.05;;;32.10;47.00;;;;;;5113262;28;20054;-72
2021/07/31 13:08:48;;;;;;;11.75;3.80;;;32.10;46.70;;;;;;5110673;28;20533;-72
2021/07/31 13:11:16;;;;;;;8.85;3.70;;;32.10;46.30;;;;;;5108545;28;20484;-72
2021/07/31 13:13:42;;;;;;;7.47;4.30;;;32.20;46.20;;;;;;5112346;28;20020;-72
2021/07/31 13:16:08;;;;;;;6.82;4.03;;;32.30;46.20;;;;;;5113380;28;20032;-72
2021/07/31 13:18:34;;;;;;;4.97;3.50;;;32.30;46.20;;;;;;5113503;28;20408;-72
2021/07/31 13:21:00;;;;;;;10.02;3.80;;;32.30;45.20;;;;;;5113452;28;20480;-72